<?xml version="1.0" encoding="UTF-8" standalone="no" ?>
<gpx xmlns="http://www.topografix.com/GPX/1/1" xmlns:xsi="http://www.w3.org/2001/XMLSchema-instance" xsi:schemaLocation="http://www.topografix.com/GPX/1/1 http://www.topografix.com/GPX/1/1/gpx.xsd" version="1.1" creator="VisuGPX - https://www.visugpx.com">
  <metadata>
    <name>maintenon 2</name>
    <desc><![CDATA[Depart et arrivée a la gare de maintenon ]]></desc>
  </metadata>
  <trk>
    <name><![CDATA[20180527102514-rz6WM]]></name>
    <trkseg>
      <trkpt lat="48.58911" lon="1.57826">
        <ele>102.9</ele>
        <time>2018-05-26T12:27:01Z</time>
      </trkpt>
      <trkpt lat="48.58899" lon="1.57799">
        <ele>103</ele>
        <time>2018-05-26T12:27:06Z</time>
      </trkpt>
      <trkpt lat="48.588" lon="1.57787">
        <ele>103</ele>
        <time>2018-05-26T12:27:11Z</time>
      </trkpt>
      <trkpt lat="48.58717" lon="1.5781">
        <ele>103</ele>
        <time>2018-05-26T12:27:16Z</time>
      </trkpt>
      <trkpt lat="48.58653" lon="1.57767">
        <ele>103</ele>
        <time>2018-05-26T12:27:21Z</time>
      </trkpt>
      <trkpt lat="48.58582" lon="1.57738">
        <ele>104</ele>
        <time>2018-05-26T12:27:26Z</time>
      </trkpt>
      <trkpt lat="48.58557" lon="1.57697">
        <ele>105</ele>
        <time>2018-05-26T12:27:31Z</time>
      </trkpt>
      <trkpt lat="48.58601" lon="1.57613">
        <ele>103</ele>
        <time>2018-05-26T12:27:36Z</time>
      </trkpt>
      <trkpt lat="48.58656" lon="1.5745">
        <ele>106</ele>
        <time>2018-05-26T12:27:41Z</time>
      </trkpt>
      <trkpt lat="48.58727" lon="1.57309">
        <ele>104</ele>
        <time>2018-05-26T12:27:46Z</time>
      </trkpt>
      <trkpt lat="48.58774" lon="1.57182">
        <ele>102</ele>
        <time>2018-05-26T12:27:51Z</time>
      </trkpt>
      <trkpt lat="48.58716" lon="1.57131">
        <ele>111</ele>
        <time>2018-05-26T12:27:56Z</time>
      </trkpt>
      <trkpt lat="48.58699" lon="1.57137">
        <ele>112</ele>
        <time>2018-05-26T12:28:01Z</time>
      </trkpt>
      <trkpt lat="48.58723" lon="1.56955">
        <ele>118</ele>
        <time>2018-05-26T12:28:06Z</time>
      </trkpt>
      <trkpt lat="48.58842" lon="1.56727">
        <ele>110</ele>
        <time>2018-05-26T12:28:11Z</time>
      </trkpt>
      <trkpt lat="48.58902" lon="1.56719">
        <ele>107</ele>
        <time>2018-05-26T12:28:16Z</time>
      </trkpt>
      <trkpt lat="48.59015" lon="1.56433">
        <ele>109</ele>
        <time>2018-05-26T12:28:21Z</time>
      </trkpt>
      <trkpt lat="48.59051" lon="1.5639">
        <ele>111</ele>
        <time>2018-05-26T12:28:26Z</time>
      </trkpt>
      <trkpt lat="48.59075" lon="1.56324">
        <ele>115</ele>
        <time>2018-05-26T12:28:31Z</time>
      </trkpt>
      <trkpt lat="48.59152" lon="1.56174">
        <ele>113</ele>
        <time>2018-05-26T12:28:36Z</time>
      </trkpt>
      <trkpt lat="48.59176" lon="1.56088">
        <ele>119</ele>
        <time>2018-05-26T12:28:41Z</time>
      </trkpt>
      <trkpt lat="48.59129" lon="1.55987">
        <ele>134</ele>
        <time>2018-05-26T12:28:46Z</time>
      </trkpt>
      <trkpt lat="48.59109" lon="1.55897">
        <ele>134</ele>
        <time>2018-05-26T12:28:51Z</time>
      </trkpt>
      <trkpt lat="48.59153" lon="1.55828">
        <ele>136</ele>
        <time>2018-05-26T12:28:56Z</time>
      </trkpt>
      <trkpt lat="48.59135" lon="1.55738">
        <ele>135</ele>
        <time>2018-05-26T12:29:01Z</time>
      </trkpt>
      <trkpt lat="48.59132" lon="1.55674">
        <ele>135</ele>
        <time>2018-05-26T12:29:06Z</time>
      </trkpt>
      <trkpt lat="48.59083" lon="1.55573">
        <ele>138</ele>
        <time>2018-05-26T12:29:11Z</time>
      </trkpt>
      <trkpt lat="48.59143" lon="1.55487">
        <ele>141</ele>
        <time>2018-05-26T12:29:16Z</time>
      </trkpt>
      <trkpt lat="48.59238" lon="1.55193">
        <ele>142</ele>
        <time>2018-05-26T12:29:21Z</time>
      </trkpt>
      <trkpt lat="48.59259" lon="1.55023">
        <ele>127</ele>
        <time>2018-05-26T12:29:26Z</time>
      </trkpt>
      <trkpt lat="48.59379" lon="1.55058">
        <ele>126</ele>
        <time>2018-05-26T12:29:31Z</time>
      </trkpt>
      <trkpt lat="48.59281" lon="1.54837">
        <ele>127</ele>
        <time>2018-05-26T12:29:36Z</time>
      </trkpt>
      <trkpt lat="48.59296" lon="1.5479">
        <ele>129</ele>
        <time>2018-05-26T12:29:41Z</time>
      </trkpt>
      <trkpt lat="48.59492" lon="1.54871">
        <ele>133</ele>
        <time>2018-05-26T12:29:46Z</time>
      </trkpt>
      <trkpt lat="48.59704" lon="1.55032">
        <ele>136</ele>
        <time>2018-05-26T12:29:51Z</time>
      </trkpt>
      <trkpt lat="48.60013" lon="1.55131">
        <ele>136</ele>
        <time>2018-05-26T12:29:56Z</time>
      </trkpt>
      <trkpt lat="48.60156" lon="1.55101">
        <ele>134</ele>
        <time>2018-05-26T12:30:01Z</time>
      </trkpt>
      <trkpt lat="48.60243" lon="1.55051">
        <ele>134</ele>
        <time>2018-05-26T12:30:06Z</time>
      </trkpt>
      <trkpt lat="48.60426" lon="1.54899">
        <ele>136</ele>
        <time>2018-05-26T12:30:11Z</time>
      </trkpt>
      <trkpt lat="48.60485" lon="1.54817">
        <ele>136</ele>
        <time>2018-05-26T12:30:16Z</time>
      </trkpt>
      <trkpt lat="48.60616" lon="1.54657">
        <ele>132</ele>
        <time>2018-05-26T12:30:21Z</time>
      </trkpt>
      <trkpt lat="48.60667" lon="1.54609">
        <ele>132</ele>
        <time>2018-05-26T12:30:26Z</time>
      </trkpt>
      <trkpt lat="48.60691" lon="1.54646">
        <ele>132</ele>
        <time>2018-05-26T12:30:31Z</time>
      </trkpt>
      <trkpt lat="48.60837" lon="1.5468">
        <ele>132</ele>
        <time>2018-05-26T12:30:36Z</time>
      </trkpt>
      <trkpt lat="48.60886" lon="1.54738">
        <ele>131</ele>
        <time>2018-05-26T12:30:41Z</time>
      </trkpt>
      <trkpt lat="48.61147" lon="1.54747">
        <ele>133</ele>
        <time>2018-05-26T12:30:46Z</time>
      </trkpt>
      <trkpt lat="48.61216" lon="1.54727">
        <ele>132</ele>
        <time>2018-05-26T12:30:51Z</time>
      </trkpt>
      <trkpt lat="48.61368" lon="1.54603">
        <ele>131</ele>
        <time>2018-05-26T12:30:56Z</time>
      </trkpt>
      <trkpt lat="48.61496" lon="1.54532">
        <ele>131</ele>
        <time>2018-05-26T12:37:46Z</time>
      </trkpt>
      <trkpt lat="48.61574" lon="1.54596">
        <ele>130</ele>
        <time>2018-05-26T12:38:56Z</time>
      </trkpt>
      <trkpt lat="48.61639" lon="1.54654">
        <ele>130</ele>
        <time>2018-05-26T12:39:01Z</time>
      </trkpt>
      <trkpt lat="48.61689" lon="1.54719">
        <ele>122</ele>
        <time>2018-05-26T12:39:06Z</time>
      </trkpt>
      <trkpt lat="48.61765" lon="1.54752">
        <ele>115.4</ele>
        <time>2018-05-26T12:39:11Z</time>
      </trkpt>
      <trkpt lat="48.62051" lon="1.5478">
        <ele>108.2</ele>
        <time>2018-05-26T12:39:16Z</time>
      </trkpt>
      <trkpt lat="48.62058" lon="1.54895">
        <ele>99</ele>
        <time>2018-05-26T12:39:21Z</time>
      </trkpt>
      <trkpt lat="48.62132" lon="1.55159">
        <ele>98.9</ele>
        <time>2018-05-26T12:39:26Z</time>
      </trkpt>
      <trkpt lat="48.62188" lon="1.55362">
        <ele>96.3</ele>
        <time>2018-05-26T12:39:31Z</time>
      </trkpt>
      <trkpt lat="48.62128" lon="1.55393">
        <ele>96</ele>
        <time>2018-05-26T12:39:36Z</time>
      </trkpt>
      <trkpt lat="48.62025" lon="1.55367">
        <ele>98</ele>
        <time>2018-05-26T12:39:41Z</time>
      </trkpt>
      <trkpt lat="48.61983" lon="1.55399">
        <ele>98</ele>
        <time>2018-05-26T12:39:46Z</time>
      </trkpt>
      <trkpt lat="48.61942" lon="1.55444">
        <ele>97</ele>
        <time>2018-05-26T12:40:06Z</time>
      </trkpt>
      <trkpt lat="48.61802" lon="1.55522">
        <ele>96.4</ele>
      </trkpt>
      <trkpt lat="48.61593" lon="1.55667">
        <ele>95</ele>
      </trkpt>
      <trkpt lat="48.61515" lon="1.55669">
        <ele>96</ele>
      </trkpt>
      <trkpt lat="48.61457" lon="1.55738">
        <ele>97</ele>
      </trkpt>
      <trkpt lat="48.61672" lon="1.56307">
        <ele>99</ele>
      </trkpt>
      <trkpt lat="48.61762" lon="1.56279">
        <ele>100</ele>
      </trkpt>
      <trkpt lat="48.61898" lon="1.56415">
        <ele>106</ele>
      </trkpt>
      <trkpt lat="48.61967" lon="1.5643">
        <ele>107</ele>
      </trkpt>
      <trkpt lat="48.61987" lon="1.5651">
        <ele>107</ele>
      </trkpt>
      <trkpt lat="48.61965" lon="1.56573">
        <ele>109</ele>
      </trkpt>
      <trkpt lat="48.61914" lon="1.56763">
        <ele>108</ele>
      </trkpt>
      <trkpt lat="48.61909" lon="1.56998">
        <ele>101</ele>
      </trkpt>
      <trkpt lat="48.61962" lon="1.57168">
        <ele>100</ele>
      </trkpt>
      <trkpt lat="48.61892" lon="1.57174">
        <ele>103</ele>
      </trkpt>
      <trkpt lat="48.61889" lon="1.57242">
        <ele>104</ele>
      </trkpt>
      <trkpt lat="48.61873" lon="1.57487">
        <ele>107</ele>
      </trkpt>
      <trkpt lat="48.61801" lon="1.57555">
        <ele>116</ele>
      </trkpt>
      <trkpt lat="48.61767" lon="1.57658">
        <ele>120</ele>
      </trkpt>
      <trkpt lat="48.6173" lon="1.57723">
        <ele>127</ele>
      </trkpt>
      <trkpt lat="48.61631" lon="1.5776">
        <ele>134</ele>
      </trkpt>
      <trkpt lat="48.6152" lon="1.57837">
        <ele>133</ele>
      </trkpt>
      <trkpt lat="48.6144" lon="1.57854">
        <ele>134</ele>
      </trkpt>
      <trkpt lat="48.61392" lon="1.57815">
        <ele>132</ele>
      </trkpt>
      <trkpt lat="48.61298" lon="1.57804">
        <ele>133</ele>
      </trkpt>
      <trkpt lat="48.611" lon="1.57721">
        <ele>131</ele>
      </trkpt>
      <trkpt lat="48.6098" lon="1.57925">
        <ele>129</ele>
      </trkpt>
      <trkpt lat="48.60824" lon="1.57759">
        <ele>125</ele>
      </trkpt>
      <trkpt lat="48.60959" lon="1.5748">
        <ele>125</ele>
      </trkpt>
      <trkpt lat="48.60937" lon="1.57418">
        <ele>124</ele>
      </trkpt>
      <trkpt lat="48.61059" lon="1.57149">
        <ele>122</ele>
      </trkpt>
      <trkpt lat="48.61091" lon="1.57072">
        <ele>122</ele>
      </trkpt>
      <trkpt lat="48.61101" lon="1.56995">
        <ele>121</ele>
      </trkpt>
      <trkpt lat="48.61083" lon="1.5681">
        <ele>108</ele>
      </trkpt>
      <trkpt lat="48.61031" lon="1.56627">
        <ele>100</ele>
      </trkpt>
      <trkpt lat="48.60899" lon="1.56633">
        <ele>98</ele>
      </trkpt>
      <trkpt lat="48.60849" lon="1.56397">
        <ele>98</ele>
      </trkpt>
      <trkpt lat="48.60887" lon="1.56286">
        <ele>98</ele>
      </trkpt>
      <trkpt lat="48.60975" lon="1.56154">
        <ele>100</ele>
      </trkpt>
      <trkpt lat="48.6095" lon="1.56093">
        <ele>99</ele>
      </trkpt>
      <trkpt lat="48.60863" lon="1.56052">
        <ele>100</ele>
      </trkpt>
      <trkpt lat="48.60838" lon="1.55885">
        <ele>97</ele>
      </trkpt>
      <trkpt lat="48.60751" lon="1.55654">
        <ele>99</ele>
      </trkpt>
      <trkpt lat="48.60737" lon="1.55646">
        <ele>100</ele>
      </trkpt>
      <trkpt lat="48.60623" lon="1.55667">
        <ele>101</ele>
      </trkpt>
      <trkpt lat="48.6052" lon="1.55717">
        <ele>102</ele>
      </trkpt>
      <trkpt lat="48.60439" lon="1.55745">
        <ele>101</ele>
      </trkpt>
      <trkpt lat="48.60336" lon="1.55835">
        <ele>102</ele>
      </trkpt>
      <trkpt lat="48.60232" lon="1.56023">
        <ele>100</ele>
      </trkpt>
      <trkpt lat="48.60219" lon="1.56107">
        <ele>100</ele>
      </trkpt>
      <trkpt lat="48.60217" lon="1.56225">
        <ele>100</ele>
      </trkpt>
      <trkpt lat="48.60185" lon="1.56354">
        <ele>101</ele>
      </trkpt>
      <trkpt lat="48.6007" lon="1.56545">
        <ele>101</ele>
      </trkpt>
      <trkpt lat="48.60035" lon="1.56738">
        <ele>100</ele>
      </trkpt>
      <trkpt lat="48.59988" lon="1.56869">
        <ele>101</ele>
      </trkpt>
      <trkpt lat="48.59958" lon="1.56871">
        <ele>101</ele>
      </trkpt>
      <trkpt lat="48.5989" lon="1.57079">
        <ele>103</ele>
      </trkpt>
      <trkpt lat="48.59745" lon="1.57373">
        <ele>102</ele>
      </trkpt>
      <trkpt lat="48.59652" lon="1.57447">
        <ele>102.3</ele>
      </trkpt>
      <trkpt lat="48.59389" lon="1.57591">
        <ele>101.2</ele>
      </trkpt>
      <trkpt lat="48.59349" lon="1.57616">
        <ele>101.4</ele>
      </trkpt>
      <trkpt lat="48.59178" lon="1.57711">
        <ele>102</ele>
      </trkpt>
      <trkpt lat="48.59046" lon="1.5778">
        <ele>101.9</ele>
      </trkpt>
      <trkpt lat="48.59037" lon="1.5777">
        <ele>102</ele>
      </trkpt>
      <trkpt lat="48.58984" lon="1.57793">
        <ele>101.7</ele>
      </trkpt>
      <trkpt lat="48.58949" lon="1.57805">
        <ele>102</ele>
      </trkpt>
      <trkpt lat="48.58927" lon="1.57842">
        <ele>102</ele>
      </trkpt>
      <trkpt lat="48.58946" lon="1.57935">
        <ele>102</ele>
      </trkpt>
      <trkpt lat="48.58741" lon="1.58448">
        <ele>108</ele>
      </trkpt>
      <trkpt lat="48.58632" lon="1.58712">
        <ele>114</ele>
      </trkpt>
      <trkpt lat="48.58422" lon="1.58928">
        <ele>113.6</ele>
      </trkpt>
      <trkpt lat="48.58592" lon="1.58728">
        <ele>113</ele>
      </trkpt>
      <trkpt lat="48.58695" lon="1.58485">
        <ele>109</ele>
      </trkpt>
      <trkpt lat="48.58721" lon="1.58294">
        <ele>107</ele>
      </trkpt>
      <trkpt lat="48.58835" lon="1.57993">
        <ele>103</ele>
      </trkpt>
      <trkpt lat="48.58919" lon="1.5793">
        <ele>101.9</ele>
      </trkpt>
    </trkseg>
  </trk>
</gpx>